createdAt,value
2022-09-03T00:01:01.828Z,55.70
2022-09-03T00:02:22.831Z,54.60
2022-09-03T00:03:37.595Z,56.30
2022-09-03T00:04:53.263Z,54.80
2022-09-03T00:06:17.499Z,54.20
2022-09-03T00:07:32.116Z,56.70
2022-09-03T00:08:46.518Z,55.40
2022-09-03T00:09:55.837Z,56.50
2022-09-03T00:11:22.997Z,54.60
2022-09-03T00:12:32.355Z,55.80
2022-09-03T00:13:44.321Z,55.00
2022-09-03T00:15:04.162Z,55.10
2022-09-03T00:16:11.497Z,56.70
2022-09-03T00:17:22.434Z,55.60
2022-09-03T00:18:30.240Z,54.80
2022-09-03T00:19:36.956Z,55.10
2022-09-03T00:20:50.932Z,54.80
2022-09-03T00:21:57.577Z,55.40
2022-09-03T00:23:03.844Z,55.40
2022-09-03T00:24:10.902Z,55.80
2022-09-03T00:25:29.105Z,55.50
2022-09-03T00:26:35.365Z,55.40
2022-09-03T00:27:40.368Z,55.60
2022-09-03T00:28:45.498Z,55.90
2022-09-03T00:29:57.652Z,56.10
2022-09-03T00:31:14.976Z,56.00
2022-09-03T00:32:26.795Z,57.50
2022-09-03T00:33:31.212Z,57.20
2022-09-03T00:34:39.391Z,57.40
2022-09-03T00:35:53.839Z,57.50
2022-09-03T00:36:55.782Z,57.60
2022-09-03T00:37:57.739Z,57.80
2022-09-03T00:38:59.733Z,57.90
2022-09-03T00:40:03.254Z,57.80
2022-09-03T00:41:11.087Z,57.90
2022-09-03T00:42:42.514Z,58.00
2022-09-03T00:43:46.210Z,58.10
2022-09-03T00:44:54.987Z,58.10
2022-09-03T00:46:05.276Z,58.20
2022-09-03T00:47:25.800Z,58.10
2022-09-03T00:48:32.873Z,58.50
2022-09-03T00:49:50.953Z,59.20
2022-09-03T00:51:17.676Z,59.70
2022-09-03T00:52:19.687Z,59.80
2022-09-03T00:53:44.816Z,59.70
2022-09-03T00:54:55.363Z,60.00
2022-09-03T00:56:41.068Z,60.40
2022-09-03T00:57:48.858Z,60.80
2022-09-03T00:59:19.307Z,60.70
2022-09-03T01:00:21.705Z,60.90
2022-09-03T01:01:35.351Z,61.00
2022-09-03T01:02:56.116Z,61.00
2022-09-03T01:04:28.982Z,61.00
2022-09-03T01:06:09.085Z,61.00
2022-09-03T01:07:19.400Z,61.00
2022-09-03T01:08:49.205Z,61.40
2022-09-03T01:10:19.079Z,60.80
2022-09-03T01:11:47.163Z,61.00
2022-09-03T01:13:20.276Z,61.10
2022-09-03T01:14:24.730Z,60.70
2022-09-03T01:16:03.594Z,61.20
2022-09-03T01:17:13.283Z,60.70
2022-09-03T01:18:31.975Z,60.60
2022-09-03T01:19:52.095Z,61.20
2022-09-03T01:21:23.548Z,60.60
2022-09-03T01:22:49.663Z,60.60
2022-09-03T01:24:31.778Z,60.60
2022-09-03T01:25:54.645Z,60.70
2022-09-03T01:27:11.026Z,61.00
2022-09-03T01:28:22.079Z,61.30
2022-09-03T01:29:39.862Z,61.20
2022-09-03T01:30:49.156Z,61.50
2022-09-03T01:31:57.894Z,61.50
2022-09-03T01:33:05.196Z,62.00
2022-09-03T01:34:09.884Z,61.80
2022-09-03T01:35:20.736Z,61.80
2022-09-03T01:36:49.657Z,61.70
2022-09-03T01:38:20.864Z,61.50
2022-09-03T01:39:39.298Z,61.90
2022-09-03T01:40:50.498Z,62.00
2022-09-03T01:42:29.562Z,62.00
2022-09-03T01:43:45.610Z,62.40
2022-09-03T01:45:06.464Z,61.70
2022-09-03T01:46:24.373Z,62.00
2022-09-03T01:47:51.558Z,61.80
2022-09-03T01:49:11.242Z,62.80
2022-09-03T01:50:25.070Z,62.00
2022-09-03T01:51:30.047Z,62.30
2022-09-03T01:52:54.801Z,62.20
2022-09-03T01:54:01.453Z,62.60
2022-09-03T01:55:18.658Z,62.10
2022-09-03T01:56:21.086Z,62.50
2022-09-03T01:57:36.975Z,62.60
2022-09-03T01:59:01.043Z,62.30
2022-09-03T02:00:08.408Z,61.90
2022-09-03T02:01:26.480Z,62.10
2022-09-03T02:02:30.756Z,62.10
2022-09-03T02:03:42.705Z,61.50
2022-09-03T02:05:02.470Z,61.70
2022-09-03T02:06:05.987Z,62.30
2022-09-03T02:07:07.698Z,61.40
2022-09-03T02:08:11.769Z,61.60
2022-09-03T02:09:13.971Z,61.20
2022-09-03T02:10:19.359Z,61.70
2022-09-03T02:11:22.070Z,61.50
2022-09-03T02:12:24.248Z,61.80
2022-09-03T02:13:31.277Z,61.30
2022-09-03T02:14:33.202Z,61.30
2022-09-03T02:15:38.153Z,61.40
2022-09-03T02:16:40.078Z,61.60
2022-09-03T02:17:43.930Z,61.60
2022-09-03T02:18:56.049Z,61.70
2022-09-03T02:19:59.032Z,61.10
2022-09-03T02:21:01.269Z,61.30
2022-09-03T02:22:04.092Z,61.90
2022-09-03T02:23:06.363Z,61.70
2022-09-03T02:24:08.876Z,62.10
2022-09-03T02:25:11.108Z,62.30
2022-09-03T02:26:18.394Z,62.40
2022-09-03T02:27:20.412Z,62.50
2022-09-03T02:28:23.295Z,62.90
2022-09-03T02:29:25.242Z,62.30
2022-09-03T02:30:28.639Z,62.50
2022-09-03T02:31:30.791Z,62.80
2022-09-03T02:32:33.271Z,62.80
2022-09-03T02:33:40.491Z,62.90
2022-09-03T02:34:44.019Z,63.40
2022-09-03T02:35:46.430Z,63.30
2022-09-03T02:36:48.149Z,62.80
2022-09-03T02:37:50.530Z,63.10
2022-09-03T02:38:52.278Z,62.50
2022-09-03T02:39:54.509Z,63.40
2022-09-03T02:40:56.327Z,63.40
2022-09-03T02:41:59.494Z,64.10
2022-09-03T02:43:02.054Z,63.70
2022-09-03T02:44:11.139Z,64.00
2022-09-03T02:45:27.772Z,64.10
2022-09-03T02:46:35.741Z,66.00
2022-09-03T02:47:42.660Z,64.60
2022-09-03T02:48:44.353Z,64.50
2022-09-03T02:49:49.053Z,64.90
2022-09-03T02:50:51.402Z,64.80
2022-09-03T02:52:01.805Z,64.10
2022-09-03T02:53:03.516Z,65.20
2022-09-03T02:54:05.834Z,64.10
2022-09-03T02:55:07.922Z,64.80
2022-09-03T02:56:09.764Z,64.90
2022-09-03T02:57:14.994Z,64.50
2022-09-03T02:58:16.746Z,64.40
2022-09-03T02:59:18.446Z,64.70
2022-09-03T03:00:20.165Z,64.30
2022-09-03T03:01:24.073Z,64.50
2022-09-03T03:02:26.140Z,64.50
2022-09-03T03:03:28.328Z,64.60
2022-09-03T03:04:31.189Z,64.80
2022-09-03T03:05:46.373Z,64.80
2022-09-03T03:06:50.659Z,65.80
2022-09-03T03:07:52.388Z,64.70
2022-09-03T03:08:55.854Z,65.10
2022-09-03T03:09:57.607Z,64.70
2022-09-03T03:11:00.701Z,64.80
2022-09-03T03:12:02.683Z,64.30
2022-09-03T03:13:04.404Z,64.40
2022-09-03T03:14:06.176Z,64.40
2022-09-03T03:15:08.142Z,64.20
2022-09-03T03:16:10.396Z,64.90
2022-09-03T03:17:12.092Z,65.00
2022-09-03T03:18:14.131Z,64.80
2022-09-03T03:19:15.859Z,65.10
2022-09-03T03:20:17.577Z,64.60
2022-09-03T03:21:19.635Z,64.90
2022-09-03T03:22:21.358Z,64.40
2022-09-03T03:23:23.065Z,64.40
2022-09-03T03:24:24.786Z,64.90
2022-09-03T03:25:26.480Z,65.10
2022-09-03T03:26:28.767Z,65.00
2022-09-03T03:27:30.469Z,65.00
2022-09-03T03:28:35.507Z,65.30
2022-09-03T03:29:37.278Z,65.60
2022-09-03T03:30:40.198Z,65.20
2022-09-03T03:31:41.949Z,65.20
2022-09-03T03:32:43.690Z,65.80
2022-09-03T03:34:00.393Z,65.90
2022-09-03T03:35:02.129Z,67.10
2022-09-03T03:36:07.069Z,66.20
2022-09-03T03:37:08.773Z,65.80
2022-09-03T03:38:10.725Z,66.20
2022-09-03T03:39:12.469Z,66.40
2022-09-03T03:40:15.443Z,66.20
2022-09-03T03:41:19.732Z,66.30
2022-09-03T03:42:21.418Z,66.40
2022-09-03T03:43:23.166Z,66.50
2022-09-03T03:44:24.910Z,66.60
2022-09-03T03:45:26.664Z,66.90
2022-09-03T03:46:38.714Z,67.10
2022-09-03T03:47:40.541Z,67.60
2022-09-03T03:48:42.318Z,67.20
2022-09-03T03:49:44.365Z,67.60
2022-09-03T03:50:47.448Z,67.60
2022-09-03T03:51:49.198Z,68.00
2022-09-03T03:52:51.124Z,67.90
2022-09-03T03:53:57.199Z,67.80
2022-09-03T03:54:58.908Z,67.90
2022-09-03T03:56:03.771Z,68.10
2022-09-03T03:57:05.509Z,67.80
2022-09-03T03:58:07.295Z,67.90
2022-09-03T03:59:09.010Z,67.80
2022-09-03T04:00:11.141Z,67.50
2022-09-03T04:01:21.253Z,68.70
2022-09-03T04:02:23.059Z,68.00
2022-09-03T04:03:24.810Z,67.80
2022-09-03T04:04:26.634Z,68.10
2022-09-03T04:05:28.344Z,68.40
2022-09-03T04:06:35.507Z,67.90
2022-09-03T04:07:37.191Z,67.90
2022-09-03T04:08:41.989Z,67.70
2022-09-03T04:09:43.707Z,67.40
2022-09-03T04:10:45.395Z,67.40
2022-09-03T04:11:47.082Z,67.30
2022-09-03T04:12:48.778Z,66.90
2022-09-03T04:13:51.440Z,66.50
2022-09-03T04:14:53.131Z,66.80
2022-09-03T04:16:04.271Z,67.00
2022-09-03T04:17:06.023Z,66.80
2022-09-03T04:18:08.461Z,66.80
2022-09-03T04:19:10.145Z,66.50
2022-09-03T04:20:11.898Z,66.80
2022-09-03T04:21:16.781Z,66.70
2022-09-03T04:22:19.640Z,66.60
2022-09-03T04:23:21.538Z,67.40
2022-09-03T04:24:23.900Z,66.80
2022-09-03T04:25:25.594Z,66.70
2022-09-03T04:26:32.134Z,66.80
2022-09-03T04:27:34.059Z,67.10
2022-09-03T04:28:36.526Z,66.90
2022-09-03T04:29:38.291Z,67.00
2022-09-03T04:30:41.329Z,67.00
2022-09-03T04:32:05.954Z,66.70
2022-09-03T04:33:07.650Z,67.50
2022-09-03T04:34:18.017Z,67.20
2022-09-03T04:35:24.310Z,67.20
2022-09-03T04:36:28.515Z,67.80
2022-09-03T04:37:30.245Z,67.60
2022-09-03T04:38:36.646Z,67.60
2022-09-03T04:39:38.365Z,68.20
2022-09-03T04:40:40.128Z,67.40
2022-09-03T04:41:41.817Z,67.20
2022-09-03T04:42:43.891Z,68.00
2022-09-03T04:43:48.616Z,67.40
2022-09-03T04:44:53.210Z,66.80
2022-09-03T04:45:59.665Z,67.40
2022-09-03T04:47:01.419Z,67.60
2022-09-03T04:48:04.424Z,67.40
2022-09-03T04:49:09.366Z,67.20
2022-09-03T04:50:11.593Z,67.10
2022-09-03T04:51:16.231Z,68.00
2022-09-03T04:52:17.925Z,68.30
2022-09-03T04:53:19.629Z,68.10
2022-09-03T04:54:21.336Z,67.90
2022-09-03T04:55:23.203Z,67.90
2022-09-03T04:56:27.689Z,68.00
2022-09-03T04:57:34.390Z,67.80
2022-09-03T04:58:36.293Z,67.90
2022-09-03T04:59:41.109Z,67.60
2022-09-03T05:00:42.964Z,67.60
2022-09-03T05:01:44.723Z,67.60
2022-09-03T05:02:51.854Z,67.70
2022-09-03T05:03:53.953Z,68.20
2022-09-03T05:04:55.694Z,67.60
2022-09-03T05:06:00.583Z,67.80
2022-09-03T05:07:02.349Z,68.00
2022-09-03T05:08:04.402Z,68.00
2022-09-03T05:09:06.660Z,67.60
2022-09-03T05:10:13.145Z,67.40
2022-09-03T05:11:14.981Z,67.60
2022-09-03T05:12:17.735Z,67.90
2022-09-03T05:13:19.416Z,67.40
2022-09-03T05:14:21.475Z,68.30
2022-09-03T05:15:23.177Z,67.40
2022-09-03T05:16:26.388Z,67.40
2022-09-03T05:17:28.147Z,67.40
2022-09-03T05:18:30.024Z,67.60
2022-09-03T05:19:31.801Z,67.80
2022-09-03T05:20:33.551Z,67.50
2022-09-03T05:21:36.161Z,67.70
2022-09-03T05:22:37.937Z,67.40
2022-09-03T05:23:42.558Z,67.60
2022-09-03T05:24:44.270Z,67.50
2022-09-03T05:25:59.416Z,67.70
2022-09-03T05:27:01.307Z,67.70
2022-09-03T05:28:03.258Z,67.80
2022-09-03T05:29:09.512Z,67.90
2022-09-03T05:30:13.164Z,67.90
2022-09-03T05:31:17.389Z,68.30
2022-09-03T05:32:19.165Z,68.60
2022-09-03T05:33:24.143Z,68.50
2022-09-03T05:34:25.928Z,68.30
2022-09-03T05:35:30.147Z,68.30
2022-09-03T05:36:34.825Z,68.20
2022-09-03T05:37:37.528Z,68.00
2022-09-03T05:38:39.618Z,68.20
2022-09-03T05:39:41.347Z,68.50
2022-09-03T05:40:43.070Z,68.30
2022-09-03T05:41:44.825Z,68.20
2022-09-03T05:42:46.526Z,67.90
2022-09-03T05:43:56.696Z,68.30
2022-09-03T05:44:58.591Z,68.10
2022-09-03T05:46:17.334Z,67.50
2022-09-03T05:47:19.061Z,67.70
2022-09-03T05:48:20.786Z,67.30
2022-09-03T05:49:23.097Z,67.40
2022-09-03T05:50:24.792Z,67.60
2022-09-03T05:51:26.722Z,67.00
2022-09-03T05:52:28.425Z,66.80
2022-09-03T05:53:34.243Z,66.70
2022-09-03T05:54:36.039Z,66.90
2022-09-03T05:55:37.726Z,66.70
2022-09-03T05:56:40.972Z,66.50
2022-09-03T05:57:43.466Z,66.20
2022-09-03T05:58:47.709Z,66.20
2022-09-03T05:59:49.881Z,66.30
2022-09-03T06:00:52.225Z,65.50
2022-09-03T06:01:58.034Z,66.00
2022-09-03T06:03:01.693Z,66.10
2022-09-03T06:04:07.813Z,65.70
2022-09-03T06:05:09.524Z,65.40
2022-09-03T06:06:13.738Z,65.70
2022-09-03T06:07:16.177Z,64.80
2022-09-03T06:08:18.083Z,65.10
2022-09-03T06:09:23.376Z,65.10
2022-09-03T06:10:28.701Z,64.90
2022-09-03T06:11:35.643Z,65.10
2022-09-03T06:12:49.663Z,64.60
2022-09-03T06:13:51.356Z,64.60
2022-09-03T06:14:53.091Z,64.40
2022-09-03T06:16:02.964Z,64.20
2022-09-03T06:17:04.737Z,64.10
2022-09-03T06:18:06.655Z,62.90
2022-09-03T06:19:10.834Z,62.90
2022-09-03T06:20:12.546Z,63.20
2022-09-03T06:21:15.099Z,62.90
2022-09-03T06:22:17.176Z,63.30
2022-09-03T06:23:18.850Z,63.30
2022-09-03T06:24:28.241Z,62.90
2022-09-03T06:25:30.322Z,62.50
2022-09-03T06:26:32.228Z,62.60
2022-09-03T06:27:33.921Z,62.70
2022-09-03T06:28:38.446Z,62.50
2022-09-03T06:29:40.147Z,62.70
2022-09-03T06:30:41.929Z,63.00
2022-09-03T06:31:43.760Z,62.60
2022-09-03T06:32:46.571Z,62.80
2022-09-03T06:33:48.836Z,62.20
2022-09-03T06:34:50.503Z,62.70
2022-09-03T06:35:58.664Z,62.50
2022-09-03T06:37:00.399Z,63.00
2022-09-03T06:38:02.073Z,62.50
2022-09-03T06:39:04.191Z,62.30
2022-09-03T06:40:13.213Z,62.00
2022-09-03T06:41:21.065Z,63.40
2022-09-03T06:42:22.885Z,62.70
2022-09-03T06:43:24.982Z,61.70
2022-09-03T06:44:26.701Z,61.10
2022-09-03T06:45:29.307Z,60.70
2022-09-03T06:46:33.649Z,61.00
2022-09-03T06:47:35.598Z,60.50
2022-09-03T06:48:38.665Z,60.60
2022-09-03T06:49:40.364Z,61.50
2022-09-03T06:50:42.658Z,60.70
2022-09-03T06:51:44.427Z,60.50
2022-09-03T06:52:55.022Z,60.30
2022-09-03T06:54:02.445Z,59.60
2022-09-03T06:55:04.532Z,59.80
2022-09-03T06:56:11.499Z,60.00
2022-09-03T06:57:13.191Z,60.10
2022-09-03T06:58:14.945Z,59.80
2022-09-03T06:59:17.735Z,58.70
2022-09-03T07:00:21.274Z,59.30
2022-09-03T07:01:26.009Z,58.80
2022-09-03T07:02:27.859Z,58.50
2022-09-03T07:03:30.094Z,58.70
2022-09-03T07:04:34.653Z,58.30
2022-09-03T07:05:37.529Z,58.20
2022-09-03T07:06:42.044Z,58.50
2022-09-03T07:07:46.249Z,58.90
2022-09-03T07:08:48.029Z,58.60
2022-09-03T07:09:49.708Z,58.90
2022-09-03T07:10:51.388Z,57.90
2022-09-03T07:11:53.312Z,58.20
2022-09-03T07:12:56.024Z,57.60
2022-09-03T07:13:58.820Z,55.90
2022-09-03T07:15:00.499Z,55.30
2022-09-03T07:16:05.256Z,56.70
2022-09-03T07:17:07.005Z,57.20
2022-09-03T07:18:08.708Z,57.10
2022-09-03T07:19:10.654Z,57.00
2022-09-03T07:20:12.336Z,57.10
2022-09-03T07:21:17.229Z,57.20
2022-09-03T07:22:18.921Z,56.10
2022-09-03T07:23:20.600Z,54.90
2022-09-03T07:24:22.655Z,55.00
2022-09-03T07:25:26.259Z,54.90
2022-09-03T07:26:30.487Z,56.00
2022-09-03T07:27:32.278Z,56.30
2022-09-03T07:28:36.546Z,56.20
2022-09-03T07:29:38.227Z,56.10
2022-09-03T07:30:39.908Z,56.20
2022-09-03T07:31:43.259Z,56.30
2022-09-03T07:32:46.545Z,56.50
2022-09-03T07:33:48.321Z,56.60
2022-09-03T07:34:52.841Z,55.70
2022-09-03T07:35:54.532Z,55.00
2022-09-03T07:36:56.252Z,55.30
2022-09-03T07:37:57.959Z,53.90
2022-09-03T07:38:59.905Z,53.80
2022-09-03T07:40:02.000Z,54.20
2022-09-03T07:41:06.381Z,54.40
2022-09-03T07:42:11.009Z,53.00
2022-09-03T07:43:13.379Z,51.80
2022-09-03T07:44:19.253Z,51.70
2022-09-03T07:45:25.947Z,51.80
2022-09-03T07:46:27.958Z,51.10
2022-09-03T07:47:30.832Z,51.30
2022-09-03T07:48:37.194Z,52.30
2022-09-03T07:49:39.230Z,52.20
2022-09-03T07:50:40.938Z,52.10
2022-09-03T07:51:42.747Z,51.50
2022-09-03T07:52:44.542Z,52.00
2022-09-03T07:53:47.566Z,51.20
2022-09-03T07:54:49.263Z,50.60
2022-09-03T07:55:51.864Z,51.40
2022-09-03T07:56:53.690Z,50.50
2022-09-03T07:57:59.503Z,51.40
2022-09-03T07:59:01.738Z,50.50
2022-09-03T08:00:04.456Z,50.80
2022-09-03T08:01:11.235Z,51.10
2022-09-03T08:02:13.168Z,50.50
2022-09-03T08:03:14.873Z,50.20
2022-09-03T08:04:16.693Z,51.40
2022-09-03T08:05:21.197Z,51.40
2022-09-03T08:06:25.181Z,50.70
2022-09-03T08:07:29.566Z,49.80
2022-09-03T08:08:35.669Z,49.60
2022-09-03T08:09:38.009Z,49.00
2022-09-03T08:10:40.037Z,49.80
2022-09-03T08:11:45.793Z,48.90
2022-09-03T08:12:47.495Z,49.30
2022-09-03T08:14:02.617Z,49.40
2022-09-03T08:15:05.202Z,48.80
2022-09-03T08:16:08.457Z,49.10
2022-09-03T08:17:12.595Z,47.80
2022-09-03T08:18:15.517Z,49.30
2022-09-03T08:19:18.804Z,48.30
2022-09-03T08:20:20.711Z,46.40
2022-09-03T08:21:23.339Z,47.50
2022-09-03T08:22:25.491Z,48.50
2022-09-03T08:23:27.323Z,48.80
2022-09-03T08:24:29.089Z,47.90
2022-09-03T08:25:30.809Z,47.00
2022-09-03T08:26:34.923Z,47.20
2022-09-03T08:27:36.674Z,47.40
2022-09-03T08:28:39.376Z,48.90
2022-09-03T08:29:42.062Z,47.00
2022-09-03T08:30:43.785Z,45.00
2022-09-03T08:31:45.592Z,45.00
2022-09-03T08:32:47.955Z,45.10
2022-09-03T08:33:52.258Z,45.90
2022-09-03T08:34:53.949Z,44.80
2022-09-03T08:35:55.685Z,43.70
2022-09-03T08:36:59.039Z,43.90
2022-09-03T08:38:05.362Z,43.10
2022-09-03T08:39:10.697Z,43.00
2022-09-03T08:40:13.153Z,41.90
2022-09-03T08:41:24.292Z,42.00
2022-09-03T08:42:41.088Z,40.80
2022-09-03T08:44:17.013Z,41.80
2022-09-03T08:45:21.415Z,40.00
2022-09-03T08:46:32.569Z,38.80
2022-09-03T08:47:49.007Z,40.30
2022-09-03T08:48:51.635Z,40.20
2022-09-03T08:50:13.210Z,39.70
2022-09-03T08:51:18.146Z,38.60
2022-09-03T08:52:50.011Z,38.60
2022-09-03T08:53:57.317Z,37.80
2022-09-03T08:55:11.093Z,38.30
2022-09-03T08:56:21.215Z,39.00
2022-09-03T08:57:25.133Z,39.30
2022-09-03T08:58:30.144Z,38.40
2022-09-03T08:59:33.178Z,38.30
2022-09-03T09:00:37.735Z,38.10
2022-09-03T09:02:07.132Z,37.70
2022-09-03T09:03:41.410Z,37.10
2022-09-03T09:04:43.115Z,37.10
2022-09-03T09:06:10.119Z,37.60
2022-09-03T09:07:22.012Z,38.30
2022-09-03T09:08:23.686Z,37.40
2022-09-03T09:09:44.237Z,37.30
2022-09-03T09:10:49.472Z,36.70
2022-09-03T09:12:07.995Z,37.00
2022-09-03T09:13:24.194Z,36.70
2022-09-03T09:14:38.058Z,37.30
2022-09-03T09:16:11.404Z,36.30
2022-09-03T09:17:34.455Z,37.50
2022-09-03T09:18:54.902Z,36.80
2022-09-03T09:20:21.646Z,36.30
2022-09-03T09:21:36.096Z,36.20
2022-09-03T09:22:56.572Z,34.70
2022-09-03T09:24:04.684Z,35.20
2022-09-03T09:25:17.721Z,34.90
2022-09-03T09:26:21.570Z,34.80
2022-09-03T09:27:24.902Z,35.90
2022-09-03T09:28:36.400Z,34.00
2022-09-03T09:29:39.354Z,33.70
2022-09-03T09:30:42.174Z,34.40
2022-09-03T09:31:45.163Z,34.30
2022-09-03T09:32:49.827Z,34.20
2022-09-03T09:33:52.486Z,34.30
2022-09-03T09:34:54.977Z,34.70
2022-09-03T09:35:56.741Z,33.70
2022-09-03T09:36:58.555Z,33.70
2022-09-03T09:38:00.421Z,33.70
2022-09-03T09:39:12.303Z,33.60
2022-09-03T09:40:35.927Z,34.00
2022-09-03T09:41:37.802Z,35.10
2022-09-03T09:42:39.635Z,33.90
2022-09-03T09:43:41.945Z,33.70
2022-09-03T09:44:44.262Z,35.10
2022-09-03T09:45:50.736Z,33.70
2022-09-03T09:47:13.095Z,33.70
2022-09-03T09:48:20.585Z,33.70
2022-09-03T09:49:37.138Z,33.10
2022-09-03T09:50:38.924Z,33.30
2022-09-03T09:51:40.712Z,34.10
2022-09-03T09:52:43.971Z,33.80
2022-09-03T09:54:02.284Z,33.20
2022-09-03T09:55:15.808Z,33.40
2022-09-03T09:56:25.612Z,33.20
2022-09-03T09:57:27.344Z,32.70
2022-09-03T09:58:30.999Z,33.30
2022-09-03T09:59:34.083Z,33.00
2022-09-03T10:00:37.815Z,33.20
2022-09-03T10:01:44.876Z,32.30
2022-09-03T10:02:54.736Z,33.00
2022-09-03T10:03:59.290Z,32.60
2022-09-03T10:05:13.592Z,33.10
2022-09-03T10:06:35.364Z,32.70
2022-09-03T10:07:37.133Z,33.10
2022-09-03T10:08:38.867Z,32.90
2022-09-03T10:09:40.652Z,33.10
2022-09-03T10:10:49.771Z,33.50
2022-09-03T10:12:14.677Z,33.10
2022-09-03T10:13:26.791Z,32.90
2022-09-03T10:14:35.089Z,33.40
2022-09-03T10:15:46.728Z,32.90
2022-09-03T10:16:56.029Z,33.50
2022-09-03T10:18:04.054Z,33.00
2022-09-03T10:19:11.024Z,32.70
2022-09-03T10:20:44.312Z,32.60
2022-09-03T10:21:54.098Z,32.80
2022-09-03T10:23:16.281Z,33.20
2022-09-03T10:25:02.479Z,32.40
2022-09-03T10:26:30.733Z,32.60
2022-09-03T10:27:33.938Z,31.70
2022-09-03T10:28:41.874Z,31.60
2022-09-03T10:29:43.572Z,32.10
2022-09-03T10:30:55.542Z,31.60
2022-09-03T10:32:27.478Z,32.10
2022-09-03T10:33:51.314Z,32.50
2022-09-03T10:35:12.701Z,32.70
2022-09-03T10:36:26.512Z,31.90
2022-09-03T10:37:38.790Z,31.70
2022-09-03T10:38:43.066Z,31.50
2022-09-03T10:39:56.622Z,32.10
2022-09-03T10:41:32.720Z,31.30
2022-09-03T10:42:49.466Z,32.00
2022-09-03T10:44:00.060Z,31.60
2022-09-03T10:45:37.787Z,32.70
2022-09-03T10:46:58.788Z,32.20
2022-09-03T10:48:12.287Z,31.50
2022-09-03T10:49:23.503Z,32.10
2022-09-03T10:50:34.286Z,31.80
2022-09-03T10:51:49.550Z,31.90
2022-09-03T10:52:54.500Z,32.00
2022-09-03T10:54:01.966Z,32.40
2022-09-03T10:55:45.144Z,32.10
2022-09-03T10:57:17.249Z,31.90
2022-09-03T10:58:34.877Z,31.20
2022-09-03T10:59:43.793Z,31.60
2022-09-03T11:00:54.558Z,30.90
2022-09-03T11:02:29.601Z,31.90
2022-09-03T11:03:51.642Z,31.60
2022-09-03T11:05:03.547Z,30.80
2022-09-03T11:06:13.434Z,30.90
2022-09-03T11:07:20.482Z,30.50
2022-09-03T11:08:24.443Z,31.60
2022-09-03T11:09:33.921Z,31.30
2022-09-03T11:10:41.476Z,30.30
2022-09-03T11:11:49.501Z,30.40
2022-09-03T11:13:09.162Z,30.60
2022-09-03T11:14:15.310Z,30.90
2022-09-03T11:15:26.206Z,30.30
2022-09-03T11:16:34.128Z,30.70
2022-09-03T11:17:44.776Z,30.20
2022-09-03T11:18:55.135Z,30.50
2022-09-03T11:20:14.752Z,30.50
2022-09-03T11:21:22.036Z,30.00
2022-09-03T11:22:25.879Z,30.00
2022-09-03T11:23:29.398Z,30.40
2022-09-03T11:24:33.306Z,30.60
2022-09-03T11:25:41.927Z,30.80
2022-09-03T11:26:55.390Z,31.00
2022-09-03T11:28:03.455Z,31.40
2022-09-03T11:29:42.739Z,30.30
2022-09-03T11:31:13.504Z,31.20
2022-09-03T11:32:24.193Z,31.10
2022-09-03T11:33:28.501Z,30.50
2022-09-03T11:34:46.407Z,30.50
2022-09-03T11:36:00.908Z,30.70
2022-09-03T11:37:06.869Z,31.20
2022-09-03T11:38:18.896Z,31.70
2022-09-03T11:39:32.996Z,31.40
2022-09-03T11:40:40.393Z,31.70
2022-09-03T11:41:42.206Z,31.50
2022-09-03T11:42:45.139Z,30.50
2022-09-03T11:43:46.921Z,30.80
2022-09-03T11:44:52.075Z,31.30
2022-09-03T11:46:11.791Z,30.50
2022-09-03T11:47:24.969Z,31.20
2022-09-03T11:48:44.665Z,31.50
2022-09-03T11:49:50.763Z,30.80
2022-09-03T11:50:54.561Z,31.70
2022-09-03T11:52:03.685Z,31.50
2022-09-03T11:53:14.360Z,31.60
2022-09-03T11:54:16.280Z,30.60
2022-09-03T11:55:38.412Z,30.30
2022-09-03T11:56:49.714Z,30.60
2022-09-03T11:57:51.768Z,31.00
2022-09-03T11:59:24.941Z,31.40
2022-09-03T12:00:26.726Z,31.10
2022-09-03T12:01:28.909Z,31.20
2022-09-03T12:02:34.874Z,31.30
2022-09-03T12:03:58.261Z,31.10
2022-09-03T12:05:21.987Z,31.00
2022-09-03T12:06:45.881Z,31.20
2022-09-03T12:07:59.675Z,31.80
2022-09-03T12:09:20.645Z,31.80
2022-09-03T12:10:42.643Z,31.80
2022-09-03T12:11:58.520Z,32.40
2022-09-03T12:13:24.364Z,31.40
2022-09-03T12:14:57.249Z,32.20
2022-09-03T12:16:22.219Z,31.30
2022-09-03T12:18:20.382Z,31.60
2022-09-03T12:19:43.068Z,32.00
2022-09-03T12:21:00.228Z,32.20
2022-09-03T12:22:05.407Z,31.40
2022-09-03T12:23:08.188Z,32.30
2022-09-03T12:24:13.595Z,31.70
2022-09-03T12:25:15.896Z,32.10
2022-09-03T12:26:23.763Z,32.30
2022-09-03T12:27:27.156Z,32.10
2022-09-03T12:28:30.305Z,31.90
2022-09-03T12:29:32.253Z,31.60
2022-09-03T12:30:34.061Z,32.20
2022-09-03T12:31:46.439Z,31.10
2022-09-03T12:32:48.327Z,30.90
2022-09-03T12:33:54.045Z,31.40
2022-09-03T12:34:55.775Z,31.50
2022-09-03T12:35:59.859Z,31.60
2022-09-03T12:37:02.068Z,31.30
2022-09-03T12:38:05.303Z,31.30
2022-09-03T12:42:12.292Z,31.00
2022-09-03T12:44:39.459Z,30.20
2022-09-03T12:48:34.431Z,30.60
2022-09-03T12:49:44.545Z,30.70
2022-09-03T12:50:56.218Z,30.20
2022-09-03T12:52:05.874Z,30.40
2022-09-03T12:53:12.372Z,31.00
2022-09-03T12:54:16.081Z,30.70
2022-09-03T12:55:29.895Z,30.60
2022-09-03T12:56:34.897Z,31.20
2022-09-03T12:57:40.239Z,30.20
2022-09-03T12:58:58.463Z,30.60
2022-09-03T13:00:06.210Z,30.50
2022-09-03T13:01:20.799Z,30.40
2022-09-03T13:02:38.161Z,30.50
2022-09-03T13:04:03.754Z,30.40
2022-09-03T13:05:08.321Z,30.20
2022-09-03T13:06:15.272Z,30.50
2022-09-03T13:07:39.531Z,30.50
2022-09-03T13:09:01.753Z,30.40
2022-09-03T13:10:08.495Z,30.80
2022-09-03T13:11:11.269Z,30.90
2022-09-03T13:12:29.269Z,30.70
2022-09-03T13:13:35.464Z,30.80
2022-09-03T13:14:52.675Z,30.40
2022-09-03T13:16:00.376Z,29.90
2022-09-03T13:17:36.463Z,29.90
2022-09-03T13:18:41.410Z,30.40
2022-09-03T13:20:06.270Z,30.00
2022-09-03T13:21:13.798Z,31.00
2022-09-03T13:22:39.393Z,30.90
2022-09-03T13:23:53.320Z,30.60
2022-09-03T13:25:15.862Z,30.60
2022-09-03T13:26:44.461Z,30.90
2022-09-03T13:28:02.488Z,30.60
2022-09-03T13:29:49.850Z,30.40
2022-09-03T13:31:32.411Z,30.20
2022-09-03T13:32:44.496Z,30.30
2022-09-03T13:33:54.172Z,30.30
2022-09-03T13:35:24.897Z,29.70
2022-09-03T13:36:43.212Z,30.00
2022-09-03T13:37:58.135Z,29.50
2022-09-03T13:39:06.180Z,30.00
2022-09-03T13:40:27.364Z,30.00
2022-09-03T13:41:38.642Z,30.30
2022-09-03T13:42:44.805Z,30.70
2022-09-03T13:44:03.055Z,29.80
2022-09-03T13:45:14.703Z,30.00
2022-09-03T13:46:33.280Z,30.40
2022-09-03T13:48:07.186Z,29.80
2022-09-03T13:49:51.968Z,30.10
2022-09-03T13:51:20.281Z,30.10
2022-09-03T13:52:45.126Z,30.50
2022-09-03T13:54:04.881Z,30.40
2022-09-03T13:55:23.351Z,31.20
2022-09-03T13:56:43.119Z,31.00
2022-09-03T13:57:51.409Z,30.90
2022-09-03T13:59:22.430Z,30.20
2022-09-03T14:00:32.930Z,30.30
2022-09-03T14:01:43.394Z,30.10
2022-09-03T14:02:53.516Z,30.80
2022-09-03T14:04:02.827Z,30.30
2022-09-03T14:05:10.449Z,30.90
2022-09-03T14:06:39.650Z,30.40
2022-09-03T14:07:48.107Z,30.50
2022-09-03T14:09:16.143Z,30.40
2022-09-03T14:10:36.812Z,29.70
2022-09-03T14:11:47.401Z,29.80
2022-09-03T14:13:11.512Z,29.60
2022-09-03T14:14:37.269Z,29.90
2022-09-03T14:16:04.490Z,30.10
2022-09-03T14:17:42.490Z,30.00
2022-09-03T14:19:06.808Z,30.30
2022-09-03T14:20:26.520Z,30.80
2022-09-03T14:21:41.569Z,30.40
2022-09-03T14:22:43.703Z,30.30
2022-09-03T14:24:03.548Z,30.80
2022-09-03T14:25:18.423Z,30.80
2022-09-03T14:26:39.221Z,29.80
2022-09-03T14:27:41.604Z,30.30
2022-09-03T14:28:59.076Z,30.40
2022-09-03T14:30:07.275Z,30.40
2022-09-03T14:31:29.405Z,30.00
2022-09-03T14:32:42.614Z,30.00
2022-09-03T14:34:03.889Z,30.20
2022-09-03T14:35:15.367Z,29.70
2022-09-03T14:36:28.256Z,29.60
2022-09-03T14:37:33.169Z,30.00
2022-09-03T14:38:53.572Z,30.20
2022-09-03T14:40:17.364Z,30.40
2022-09-03T14:42:00.041Z,30.20
2022-09-03T14:43:36.858Z,30.00
2022-09-03T14:45:04.503Z,29.60
2022-09-03T14:46:23.878Z,30.00
2022-09-03T14:48:07.973Z,30.00
2022-09-03T14:49:17.525Z,29.90
2022-09-03T14:50:46.209Z,30.40
2022-09-03T14:52:12.655Z,30.80
2022-09-03T14:53:37.349Z,30.80
2022-09-03T14:55:00.351Z,31.10
2022-09-03T14:56:23.984Z,30.70
2022-09-03T14:57:47.175Z,30.20
2022-09-03T14:59:10.842Z,30.20